Weather at Los Angeles International Airport

Public forecast

Using degrees Fahrenheit for public forecast. Weather courtesy of forecast.io.

Current aviation weather report (METAR) for Los Angeles International Airport

Retrieved 2020/10/21 09:53 UTC (29 minutes ago):

KLAX 210953Z 22003KT 7SM FEW008 OVC010 18/16 A2983 RMK AO2 SLP098 T01830156

Aviation forecast (TAF) for Los Angeles International Airport

Retrieved 2020/10/21 06:09 UTC (4 hours ago):

TAF COR KLAX 210606Z 2106/2212 24007KT 6SM BR OVC010 FM211400 VRB03KT 5SM BR OVC014 FM212000 26012KT P6SM SCT015 FM220100 26010KT P6SM BKN014 FM220300 26008KT 6SM BR OVC009 FM220800 25004KT P6SM OVC014